Asahikawa Air Base, Japan

4:16 PM JST on July 30, 2016 (GMT +0900)
Asahikawa | | Change Station

Elev 682 ft 43.67 °N, 142.45 °E | Updated 16 minutes ago

Mostly Cloudy
Mostly Cloudy
81 °F
Feels Like 85 °F
N
7
Wind Variable Wind from SW

Today
High -- | Low -- °F
--% Chance of Precip.
Yesterday
High -- | Low -- °F
Precip. -- in
Pressure 29.86 in
Visibility 6.2 miles
Clouds Few 1200 ft
Few 2500 ft
Scattered Clouds 3000 ft
Mostly Cloudy 4000 ft
Heat Index 85 °F
Dew Point 72 °F
Humidity 74%
Rainfall 0.00 in
Snow Depth Not available.
4:16 AM 6:56 PM
Waning Crescent, 15% visible
METAR RJEC 300700Z 23006KT 190V270 9999 VCSH FEW012 FEW025CB SCT030 BKN040 27/22 Q1011
Pressure 29.86 in
Visibility 6.2 miles
Clouds Few 1200 ft
Few 2500 ft
Scattered Clouds 3000 ft
Mostly Cloudy 4000 ft
Heat Index 85 °F
Dew Point 72 °F
Humidity 74%
Rainfall 0.00 in
Snow Depth Not available.
4:16 AM 6:56 PM
Waning Crescent, 15% visible
METAR RJEC 300700Z 23006KT 190V270 9999 VCSH FEW012 FEW025CB SCT030 BKN040 27/22 Q1011

10-Day Weather Forecast

No radar image for this location.
×

Almanac

Astronomy

Jul. 30, 2016 Rise Set
Actual Time
Civil Twilight
Nautical Twilight
Astronomical Twilight
Moon
Length of Visible Light
Length of Day
Tomorrow will be .
, % of the Moon is Illuminated

Today's Extremes

Country Highs Country Lows

Community

WunderPhotos

Upload Photos

1,928,508 photos uploaded!

WunderBlog® & News

Nearby

Air Quality

  Air Quality AQ Index Pollutant
Not available.

Snow Depth

Station Depth Elevation

Earthquake Activity

City Distance Mag. Time & Date
Minimum magnitude displayed is 2.5.

Coastal Water Temperatures

Place Temperature

Stations

Nearby Weather Stations

Station Location Temp. Windchill Dew Point Humidity Wind Precip. Elev Updated Type